createdAt,value
2022-10-30T00:00:53.413Z,2.60
2022-10-30T00:02:56.581Z,1.92
2022-10-30T00:04:59.514Z,1.42
2022-10-30T00:07:02.059Z,3.45
2022-10-30T00:09:04.696Z,2.90
2022-10-30T00:11:10.253Z,1.90
2022-10-30T00:13:14.206Z,2.40
2022-10-30T00:15:17.027Z,2.15
2022-10-30T00:17:19.563Z,2.38
2022-10-30T00:19:22.200Z,1.73
2022-10-30T00:21:24.720Z,7.07
2022-10-30T00:23:27.310Z,3.50
2022-10-30T00:25:29.900Z,5.03
2022-10-30T00:27:32.526Z,2.08
2022-10-30T00:29:35.143Z,2.22
2022-10-30T00:31:37.723Z,4.38
2022-10-30T00:33:40.292Z,4.95
2022-10-30T00:35:48.931Z,3.63
2022-10-30T00:37:51.538Z,9.05
2022-10-30T00:39:54.179Z,3.80
2022-10-30T00:41:56.745Z,2.05
2022-10-30T00:43:59.333Z,1.48
2022-10-30T00:46:37.088Z,1.55
2022-10-30T00:48:39.849Z,3.25
2022-10-30T00:50:42.530Z,2.90
2022-10-30T00:53:12.951Z,3.80
2022-10-30T00:55:21.321Z,2.10
2022-10-30T00:57:24.681Z,3.72
2022-10-30T00:59:32.088Z,2.60
2022-10-30T01:01:42.846Z,1.45
2022-10-30T01:03:47.002Z,3.20
2022-10-30T01:05:53.850Z,1.95
2022-10-30T01:07:56.817Z,3.25
2022-10-30T01:10:00.175Z,2.97
2022-10-30T01:12:02.771Z,3.05
2022-10-30T01:14:08.779Z,3.90
2022-10-30T01:16:26.512Z,14.48
2022-10-30T01:18:50.656Z,3.83
2022-10-30T01:21:05.647Z,4.57
2022-10-30T01:23:20.198Z,5.93
2022-10-30T01:25:49.626Z,4.72
2022-10-30T01:28:08.665Z,3.88
2022-10-30T01:30:26.354Z,3.88
2022-10-30T01:32:58.305Z,3.50
2022-10-30T01:35:34.704Z,5.18
2022-10-30T01:37:46.061Z,7.20
2022-10-30T01:39:48.721Z,8.23
2022-10-30T01:41:51.302Z,7.18
2022-10-30T01:43:59.080Z,4.35
2022-10-30T01:46:10.405Z,4.35
2022-10-30T01:48:22.985Z,2.67
2022-10-30T01:50:45.456Z,3.70
2022-10-30T01:53:25.738Z,4.78
2022-10-30T01:55:37.859Z,4.85
2022-10-30T01:57:47.751Z,4.95
2022-10-30T02:00:03.147Z,4.00
2022-10-30T02:02:08.408Z,5.05
2022-10-30T02:04:13.170Z,5.53
2022-10-30T02:06:15.857Z,5.55
2022-10-30T02:08:19.248Z,5.82
2022-10-30T02:10:21.897Z,8.02
2022-10-30T02:12:24.848Z,8.85
2022-10-30T02:14:52.049Z,7.00
2022-10-30T02:16:58.874Z,5.78
2022-10-30T02:19:02.851Z,10.73
2022-10-30T02:21:06.776Z,4.78
2022-10-30T02:23:13.614Z,12.43
2022-10-30T02:25:16.601Z,6.80
2022-10-30T02:27:19.345Z,6.18
2022-10-30T02:29:22.052Z,7.80
2022-10-30T02:31:24.632Z,8.10
2022-10-30T02:33:27.320Z,6.45
2022-10-30T02:35:30.693Z,6.05
2022-10-30T02:37:35.775Z,9.82
2022-10-30T02:39:38.349Z,5.97
2022-10-30T02:41:40.968Z,5.90
2022-10-30T02:43:43.507Z,5.70
2022-10-30T02:45:52.084Z,7.70
2022-10-30T02:47:54.768Z,5.50
2022-10-30T02:49:57.463Z,5.80
2022-10-30T02:52:00.136Z,11.10
2022-10-30T02:54:02.713Z,11.27
2022-10-30T02:56:07.014Z,9.55
2022-10-30T02:58:10.543Z,13.23
2022-10-30T03:00:13.806Z,10.10
2022-10-30T03:02:16.652Z,7.78
2022-10-30T03:04:19.395Z,8.13
2022-10-30T03:06:22.080Z,9.43
2022-10-30T03:08:24.758Z,5.35
2022-10-30T03:10:27.380Z,7.45
2022-10-30T03:12:30.002Z,6.88
2022-10-30T03:14:32.935Z,6.22
2022-10-30T03:16:37.108Z,5.55
2022-10-30T03:18:40.502Z,7.25
2022-10-30T03:20:43.039Z,8.05
2022-10-30T03:22:45.818Z,6.22
2022-10-30T03:24:48.314Z,7.00
2022-10-30T03:26:50.970Z,7.85
2022-10-30T03:28:53.493Z,5.10
2022-10-30T03:31:04.157Z,5.90
2022-10-30T03:33:06.852Z,4.80
2022-10-30T03:35:09.462Z,5.38
2022-10-30T03:37:12.005Z,4.57
2022-10-30T03:39:14.635Z,4.97
2022-10-30T03:41:17.340Z,4.72
2022-10-30T03:43:20.025Z,5.20
2022-10-30T03:45:22.627Z,4.88
2022-10-30T03:47:25.175Z,4.85
2022-10-30T03:49:27.725Z,7.30
2022-10-30T03:51:30.290Z,3.28
2022-10-30T03:53:32.836Z,3.08
2022-10-30T03:55:35.459Z,5.95
2022-10-30T03:57:38.652Z,5.32
2022-10-30T03:59:41.590Z,4.32
2022-10-30T04:01:44.335Z,4.65
2022-10-30T04:03:47.126Z,3.58
2022-10-30T04:05:53.054Z,4.82
2022-10-30T04:07:57.310Z,3.05
2022-10-30T04:09:59.935Z,4.15
2022-10-30T04:12:02.584Z,3.58
2022-10-30T04:14:05.270Z,3.15
2022-10-30T04:16:08.077Z,4.00
2022-10-30T04:18:14.322Z,3.42
2022-10-30T04:20:17.484Z,4.65
2022-10-30T04:22:20.042Z,5.57
2022-10-30T04:24:22.856Z,6.50
2022-10-30T04:26:25.398Z,7.55
2022-10-30T04:28:28.058Z,5.43
2022-10-30T04:30:35.482Z,4.97
2022-10-30T04:32:45.846Z,5.88
2022-10-30T04:34:48.344Z,5.50
2022-10-30T04:36:50.984Z,4.57
2022-10-30T04:38:53.485Z,5.05
2022-10-30T04:40:56.066Z,4.03
2022-10-30T04:42:59.311Z,2.28
2022-10-30T04:45:05.083Z,2.85
2022-10-30T04:47:07.773Z,2.67
2022-10-30T04:49:10.512Z,2.78
2022-10-30T04:51:13.077Z,2.42
2022-10-30T04:53:19.271Z,5.40
2022-10-30T04:55:21.981Z,2.22
2022-10-30T04:57:24.628Z,2.20
2022-10-30T04:59:27.902Z,3.28
2022-10-30T05:01:30.993Z,2.05
2022-10-30T05:03:34.144Z,2.95
2022-10-30T05:05:36.710Z,2.20
2022-10-30T05:07:39.422Z,3.22
2022-10-30T05:09:41.993Z,2.97
2022-10-30T05:11:44.525Z,1.25
2022-10-30T05:13:47.190Z,1.70
2022-10-30T05:15:50.171Z,2.70
2022-10-30T05:17:54.409Z,2.20
2022-10-30T05:19:57.040Z,2.38
2022-10-30T05:21:59.725Z,2.15
2022-10-30T05:24:02.539Z,2.65
2022-10-30T05:26:05.283Z,4.60
2022-10-30T05:28:07.965Z,6.22
2022-10-30T05:30:11.089Z,2.38
2022-10-30T05:34:17.316Z,1.92
2022-10-30T05:36:20.118Z,5.38
2022-10-30T05:38:22.829Z,3.10
2022-10-30T05:40:25.583Z,2.20
2022-10-30T05:42:28.154Z,2.47
2022-10-30T05:44:58.701Z,1.80
2022-10-30T05:46:53.447Z,2.40
2022-10-30T05:48:56.032Z,1.90
2022-10-30T05:50:58.747Z,2.60
2022-10-30T05:53:03.643Z,6.50
2022-10-30T05:55:06.625Z,3.95
2022-10-30T05:57:09.347Z,3.35
2022-10-30T05:59:12.031Z,4.55
2022-10-30T06:01:14.709Z,3.35
2022-10-30T06:03:18.460Z,4.57
2022-10-30T06:05:21.076Z,4.35
2022-10-30T06:07:23.883Z,6.88
2022-10-30T06:09:26.540Z,5.40
2022-10-30T06:11:29.169Z,6.15
2022-10-30T06:13:31.860Z,5.30
2022-10-30T06:15:34.509Z,5.35
2022-10-30T06:17:37.096Z,5.43
2022-10-30T06:19:39.809Z,5.50
2022-10-30T06:21:42.484Z,7.22
2022-10-30T06:23:45.037Z,4.57
2022-10-30T06:25:48.386Z,5.93
2022-10-30T06:27:51.398Z,4.35
2022-10-30T06:29:55.112Z,5.20
2022-10-30T06:31:59.748Z,3.92
2022-10-30T06:34:05.575Z,5.45
2022-10-30T06:36:08.383Z,2.92
2022-10-30T06:38:12.308Z,2.17
2022-10-30T06:40:16.099Z,2.20
2022-10-30T06:42:18.718Z,5.10
2022-10-30T06:44:21.376Z,6.20
2022-10-30T06:46:27.055Z,2.00
2022-10-30T06:48:33.391Z,3.67
2022-10-30T06:50:36.030Z,4.93
2022-10-30T06:52:38.942Z,3.25
2022-10-30T06:54:41.708Z,4.47
2022-10-30T06:56:44.386Z,5.53
2022-10-30T06:58:47.016Z,4.22
2022-10-30T07:03:00.708Z,3.53
2022-10-30T07:05:04.404Z,3.78
2022-10-30T07:07:07.007Z,2.72
2022-10-30T07:09:09.695Z,2.63
2022-10-30T07:11:12.293Z,4.00
2022-10-30T07:13:15.044Z,3.33
2022-10-30T07:15:17.732Z,4.00
2022-10-30T07:17:20.343Z,6.45
2022-10-30T07:19:23.753Z,3.63
2022-10-30T07:21:27.163Z,3.47
2022-10-30T07:23:29.761Z,3.17
2022-10-30T07:25:32.388Z,2.88
2022-10-30T07:27:43.125Z,1.73
2022-10-30T07:29:45.743Z,3.47
2022-10-30T07:32:01.818Z,4.63
2022-10-30T07:34:05.513Z,2.80
2022-10-30T07:36:08.881Z,2.88
2022-10-30T07:38:14.432Z,2.80
2022-10-30T07:40:17.176Z,3.72
2022-10-30T07:42:19.791Z,4.80
2022-10-30T07:44:22.544Z,2.55
2022-10-30T07:46:25.164Z,3.63
2022-10-30T07:48:27.749Z,3.95
2022-10-30T07:50:30.583Z,4.10
2022-10-30T07:52:33.621Z,4.95
2022-10-30T07:54:36.280Z,3.60
2022-10-30T07:56:38.939Z,5.63
2022-10-30T07:58:45.448Z,16.60
2022-10-30T08:00:48.778Z,6.88
2022-10-30T08:02:56.173Z,5.13
2022-10-30T08:04:59.595Z,3.50
2022-10-30T08:07:02.161Z,2.58
2022-10-30T08:09:04.811Z,3.08
2022-10-30T08:11:07.415Z,3.05
2022-10-30T08:13:10.010Z,3.25
2022-10-30T08:15:12.788Z,3.38
2022-10-30T08:17:15.537Z,3.65
2022-10-30T08:19:18.124Z,3.03
2022-10-30T08:21:21.114Z,2.53
2022-10-30T08:23:23.673Z,3.13
2022-10-30T08:25:29.136Z,2.97
2022-10-30T08:27:31.872Z,1.80
2022-10-30T08:29:37.133Z,3.03
2022-10-30T08:31:39.732Z,2.85
2022-10-30T08:33:42.388Z,2.75
2022-10-30T08:35:52.902Z,2.45
2022-10-30T08:37:59.955Z,2.38
2022-10-30T08:40:21.010Z,2.25
2022-10-30T08:42:42.434Z,2.10
2022-10-30T08:45:03.674Z,1.52
2022-10-30T08:47:07.065Z,2.90
2022-10-30T08:49:09.727Z,4.13
2022-10-30T08:51:49.553Z,2.08
2022-10-30T08:53:52.158Z,2.28
2022-10-30T08:56:13.163Z,2.58
2022-10-30T08:58:15.874Z,13.70
2022-10-30T09:01:00.280Z,1.70
2022-10-30T09:03:25.117Z,4.43
2022-10-30T09:05:27.790Z,1.52
2022-10-30T09:07:50.501Z,5.03
2022-10-30T09:09:53.246Z,1.63
2022-10-30T09:12:14.387Z,4.13
2022-10-30T09:14:35.342Z,1.25
2022-10-30T09:16:38.037Z,1.23
2022-10-30T09:18:41.609Z,1.45
2022-10-30T09:21:04.942Z,1.80
2022-10-30T09:23:08.926Z,1.05
2022-10-30T09:25:11.965Z,1.00
2022-10-30T09:27:15.520Z,1.45
2022-10-30T09:29:18.385Z,1.10
2022-10-30T09:31:21.037Z,1.13
2022-10-30T09:33:24.121Z,1.30
2022-10-30T09:35:27.079Z,1.20
2022-10-30T09:37:34.353Z,1.45
2022-10-30T09:39:37.083Z,0.65
2022-10-30T09:42:10.436Z,1.33
2022-10-30T09:44:31.295Z,1.65
2022-10-30T09:47:04.514Z,1.40
2022-10-30T09:49:36.042Z,1.48
2022-10-30T09:52:03.007Z,1.67
2022-10-30T09:54:37.274Z,1.38
2022-10-30T09:56:59.412Z,1.08
2022-10-30T09:59:32.972Z,1.48
2022-10-30T10:02:31.137Z,1.48
2022-10-30T10:04:44.073Z,1.77
2022-10-30T10:06:52.553Z,0.80
2022-10-30T10:09:04.063Z,2.15
2022-10-30T10:11:33.779Z,1.63
2022-10-30T10:13:42.617Z,2.28
2022-10-30T10:15:54.145Z,1.30
2022-10-30T10:18:02.028Z,1.10
2022-10-30T10:20:06.308Z,1.40
2022-10-30T10:22:26.282Z,1.10
2022-10-30T10:24:44.634Z,1.10
2022-10-30T10:26:53.509Z,1.20
2022-10-30T10:29:02.041Z,1.42
2022-10-30T10:31:29.525Z,1.85
2022-10-30T10:34:07.129Z,1.77
2022-10-30T10:36:25.104Z,1.80
2022-10-30T10:38:56.836Z,53.25
2022-10-30T10:41:13.253Z,3.42
2022-10-30T10:44:03.626Z,2.42
2022-10-30T10:46:39.322Z,1.50
2022-10-30T10:48:48.826Z,1.38
2022-10-30T10:51:22.493Z,1.10
2022-10-30T10:53:34.121Z,1.58
2022-10-30T10:55:39.190Z,1.63
2022-10-30T10:57:43.762Z,1.30
2022-10-30T11:00:11.312Z,1.75
2022-10-30T11:02:37.791Z,1.65
2022-10-30T11:04:43.675Z,2.65
2022-10-30T11:06:53.647Z,1.20
2022-10-30T11:09:13.614Z,1.48
2022-10-30T11:11:16.988Z,2.50
2022-10-30T11:13:38.922Z,1.63
2022-10-30T11:18:01.311Z,1.10
2022-10-30T11:20:19.101Z,2.22
2022-10-30T11:22:28.789Z,1.35
2022-10-30T11:24:36.283Z,1.58
2022-10-30T11:26:39.077Z,1.48
2022-10-30T11:28:52.851Z,1.35
2022-10-30T11:31:36.511Z,1.17
2022-10-30T11:33:57.747Z,2.30
2022-10-30T11:36:28.012Z,3.07
2022-10-30T11:38:31.252Z,1.48
2022-10-30T11:40:34.816Z,3.15
2022-10-30T11:42:45.111Z,1.70
2022-10-30T11:44:52.239Z,1.70
2022-10-30T11:46:55.662Z,4.00
2022-10-30T11:49:16.516Z,2.03
2022-10-30T11:51:35.372Z,3.22
2022-10-30T11:54:02.155Z,3.47
2022-10-30T11:56:16.516Z,2.10
2022-10-30T11:59:01.308Z,2.38
2022-10-30T12:01:14.117Z,2.40
2022-10-30T12:03:48.509Z,2.60
2022-10-30T12:05:51.103Z,2.35
2022-10-30T12:08:34.972Z,1.25
2022-10-30T12:11:11.389Z,1.77
2022-10-30T12:13:19.519Z,1.55
2022-10-30T12:15:27.929Z,0.95
2022-10-30T12:17:52.263Z,1.30
2022-10-30T12:20:32.022Z,1.98
2022-10-30T12:23:11.971Z,1.73
2022-10-30T12:25:23.547Z,2.42
2022-10-30T12:27:27.254Z,2.20
2022-10-30T12:30:24.923Z,3.42
2022-10-30T12:32:39.719Z,3.90
2022-10-30T12:35:10.691Z,2.33
2022-10-30T12:37:25.957Z,5.32
2022-10-30T12:39:55.541Z,2.20
2022-10-30T12:42:23.334Z,4.05
2022-10-30T12:44:30.972Z,11.10
2022-10-30T12:46:58.003Z,5.18
2022-10-30T12:49:09.708Z,4.75
2022-10-30T12:51:43.358Z,3.78
2022-10-30T12:54:00.764Z,8.10
2022-10-30T12:56:13.625Z,6.00
2022-10-30T12:58:43.090Z,5.03
2022-10-30T13:01:17.683Z,4.63
2022-10-30T13:03:55.056Z,4.28
2022-10-30T13:06:24.812Z,1.75
2022-10-30T13:08:45.980Z,2.92
2022-10-30T13:11:03.790Z,3.78
2022-10-30T13:13:19.071Z,13.05
2022-10-30T13:15:48.676Z,3.00
2022-10-30T13:17:51.561Z,6.68
2022-10-30T13:19:55.137Z,4.63
2022-10-30T13:22:26.634Z,3.75
2022-10-30T13:25:20.766Z,2.55
2022-10-30T13:27:46.137Z,2.80
2022-10-30T13:30:03.453Z,4.50
2022-10-30T13:32:12.195Z,3.25
2022-10-30T13:34:48.389Z,2.45
2022-10-30T13:37:01.131Z,3.10
2022-10-30T13:39:37.183Z,3.90
2022-10-30T13:42:01.465Z,2.17
2022-10-30T13:44:45.208Z,3.78
2022-10-30T13:47:12.343Z,4.68
2022-10-30T13:49:26.001Z,3.33
2022-10-30T13:51:35.056Z,7.90
2022-10-30T13:53:59.180Z,3.50
2022-10-30T13:56:02.665Z,13.18
2022-10-30T13:58:17.372Z,15.10
2022-10-30T14:00:21.726Z,9.93
2022-10-30T14:02:45.983Z,6.78
2022-10-30T14:05:26.217Z,19.13
2022-10-30T14:07:50.232Z,5.65
2022-10-30T14:10:11.128Z,2.75
2022-10-30T14:13:11.094Z,8.02
2022-10-30T14:15:31.840Z,4.85
2022-10-30T14:18:30.447Z,6.90
2022-10-30T14:20:52.785Z,6.32
2022-10-30T14:23:13.425Z,43.90
2022-10-30T14:25:35.141Z,3.45
2022-10-30T14:27:37.724Z,23.02
2022-10-30T14:29:47.057Z,2.03
2022-10-30T14:32:07.984Z,1.48
2022-10-30T14:34:42.372Z,2.38
2022-10-30T14:36:44.920Z,3.30
2022-10-30T14:39:20.597Z,2.03
2022-10-30T14:42:05.373Z,1.65
2022-10-30T14:44:29.368Z,1.33
2022-10-30T14:46:44.275Z,1.67
2022-10-30T14:49:13.057Z,2.08
2022-10-30T14:51:36.443Z,2.22
2022-10-30T14:53:55.179Z,47.75
2022-10-30T14:58:27.667Z,1.38
2022-10-30T15:00:35.839Z,8.48
2022-10-30T15:03:02.750Z,21.38
2022-10-30T15:05:42.029Z,21.38
2022-10-30T15:08:22.188Z,14.15
2022-10-30T15:10:53.500Z,23.65
2022-10-30T15:13:22.192Z,8.47
2022-10-30T15:15:25.238Z,37.65
2022-10-30T15:17:41.128Z,46.72
2022-10-30T15:19:43.820Z,108.30
2022-10-30T15:21:54.109Z,97.88
2022-10-30T15:23:59.657Z,73.57
2022-10-30T15:26:09.775Z,104.50
2022-10-30T15:30:33.972Z,124.13
2022-10-30T15:32:41.135Z,58.30
2022-10-30T15:35:05.184Z,70.70
2022-10-30T15:37:31.586Z,108.72
2022-10-30T15:39:34.197Z,163.02
2022-10-30T15:41:48.920Z,227.95
2022-10-30T15:43:51.510Z,66.25
2022-10-30T15:45:55.927Z,157.70
2022-10-30T15:48:19.597Z,103.60
2022-10-30T15:50:43.104Z,10.10
2022-10-30T15:52:46.325Z,3.80
2022-10-30T15:54:55.372Z,3.70
2022-10-30T15:57:36.499Z,5.70
2022-10-30T15:59:42.741Z,2.63
2022-10-30T16:02:05.286Z,2.33
2022-10-30T16:04:35.373Z,5.50
2022-10-30T16:06:38.013Z,21.35
2022-10-30T16:08:46.538Z,11.48
2022-10-30T16:10:52.840Z,4.63
2022-10-30T16:12:57.770Z,2.83
2022-10-30T16:15:18.136Z,9.60
2022-10-30T16:17:21.440Z,8.32
2022-10-30T16:19:30.388Z,16.30
2022-10-30T16:21:51.543Z,4.35
2022-10-30T16:24:12.835Z,2.67
2022-10-30T16:26:30.244Z,2.20
2022-10-30T16:29:09.973Z,3.60
2022-10-30T16:31:16.181Z,2.78
2022-10-30T16:33:25.360Z,6.20
2022-10-30T16:35:53.061Z,3.25
2022-10-30T16:38:16.853Z,2.63
2022-10-30T16:40:28.470Z,3.40
2022-10-30T16:42:49.769Z,2.92
2022-10-30T16:45:13.476Z,3.75
2022-10-30T16:47:37.683Z,6.03
2022-10-30T16:50:02.531Z,3.28
2022-10-30T16:52:07.867Z,2.95
2022-10-30T16:54:47.580Z,3.33
2022-10-30T16:56:53.253Z,3.28
2022-10-30T16:59:34.689Z,2.03
2022-10-30T17:01:58.257Z,2.87
2022-10-30T17:04:01.413Z,5.07
2022-10-30T17:06:39.975Z,2.53
2022-10-30T17:09:01.106Z,4.90
2022-10-30T17:11:34.393Z,3.03
2022-10-30T17:13:55.544Z,3.97
2022-10-30T17:15:59.676Z,2.73
2022-10-30T17:18:14.194Z,3.45
2022-10-30T17:20:19.748Z,2.88
2022-10-30T17:22:41.249Z,1.50
2022-10-30T17:25:02.218Z,5.25
2022-10-30T17:27:22.471Z,2.88
2022-10-30T17:30:03.239Z,4.82
2022-10-30T17:32:23.330Z,1.23
2022-10-30T17:34:25.919Z,5.70
2022-10-30T17:36:46.816Z,1.27
2022-10-30T17:39:07.834Z,1.10
2022-10-30T17:41:29.637Z,1.77
2022-10-30T17:43:35.903Z,1.10
2022-10-30T17:45:57.296Z,1.05
2022-10-30T17:48:00.191Z,1.23
2022-10-30T17:50:05.617Z,2.25
2022-10-30T17:52:26.777Z,1.35
2022-10-30T17:54:47.886Z,0.77
2022-10-30T17:56:51.114Z,0.68
2022-10-30T17:58:54.695Z,3.50
2022-10-30T18:00:58.489Z,0.88
2022-10-30T18:03:01.632Z,1.52
2022-10-30T18:05:17.874Z,1.00
2022-10-30T18:07:20.628Z,0.77
2022-10-30T18:09:23.231Z,0.52
2022-10-30T18:11:27.275Z,0.60
2022-10-30T18:14:07.255Z,0.80
2022-10-30T18:16:11.201Z,1.13
2022-10-30T18:18:13.822Z,1.58
2022-10-30T18:20:16.486Z,0.82
2022-10-30T18:22:37.761Z,0.77
2022-10-30T18:24:40.411Z,0.73
2022-10-30T18:26:43.073Z,1.48
2022-10-30T18:28:46.332Z,2.42
2022-10-30T18:30:54.508Z,0.68
2022-10-30T18:32:57.903Z,1.00
2022-10-30T18:35:00.907Z,1.05
2022-10-30T18:37:03.480Z,1.10
2022-10-30T18:39:06.049Z,1.33
2022-10-30T18:41:23.102Z,1.17
2022-10-30T18:43:25.712Z,1.23
2022-10-30T18:45:37.699Z,1.83
2022-10-30T18:49:43.116Z,0.88
2022-10-30T18:51:46.342Z,1.95
2022-10-30T18:53:52.311Z,0.85
2022-10-30T18:55:55.278Z,0.88
2022-10-30T18:57:58.072Z,1.40
2022-10-30T19:00:04.287Z,1.10
2022-10-30T19:02:22.139Z,1.10
2022-10-30T19:04:24.871Z,2.33
2022-10-30T19:06:27.501Z,1.05
2022-10-30T19:08:30.047Z,0.98
2022-10-30T19:10:35.566Z,1.60
2022-10-30T19:12:42.158Z,1.00
2022-10-30T19:14:45.132Z,1.48
2022-10-30T19:17:06.446Z,3.55
2022-10-30T19:19:09.001Z,5.10
2022-10-30T19:21:35.440Z,1.65
2022-10-30T19:23:38.219Z,2.42
2022-10-30T19:25:44.423Z,1.27
2022-10-30T19:27:47.070Z,1.10
2022-10-30T19:29:49.716Z,1.48
2022-10-30T19:31:52.937Z,2.03
2022-10-30T19:33:57.337Z,2.42
2022-10-30T19:36:04.815Z,3.33
2022-10-30T19:38:10.946Z,1.02
2022-10-30T19:40:21.221Z,1.98
2022-10-30T19:42:24.107Z,3.28
2022-10-30T19:44:46.042Z,1.17
2022-10-30T19:46:48.755Z,1.35
2022-10-30T19:48:59.637Z,3.22
2022-10-30T19:51:03.874Z,1.33
2022-10-30T19:53:07.881Z,3.83
2022-10-30T19:55:29.360Z,1.45
2022-10-30T19:57:32.167Z,4.53
2022-10-30T19:59:34.896Z,1.15
2022-10-30T20:01:56.151Z,1.05
2022-10-30T20:04:00.120Z,2.25
2022-10-30T20:06:02.956Z,1.45
2022-10-30T20:08:06.757Z,1.80
2022-10-30T20:10:19.259Z,2.63
2022-10-30T20:12:21.801Z,1.63
2022-10-30T20:14:24.378Z,2.58
2022-10-30T20:16:27.027Z,1.08
2022-10-30T20:18:32.228Z,3.17
2022-10-30T20:20:35.723Z,1.20
2022-10-30T20:22:38.334Z,1.65
2022-10-30T20:24:40.975Z,1.85
2022-10-30T20:26:43.588Z,1.55
2022-10-30T20:28:46.538Z,1.38
2022-10-30T20:30:50.351Z,2.00
2022-10-30T20:32:52.925Z,2.03
2022-10-30T20:34:55.527Z,1.70
2022-10-30T20:36:58.071Z,2.17
2022-10-30T20:39:00.720Z,2.20
2022-10-30T20:41:05.088Z,2.70
2022-10-30T20:43:13.983Z,3.13
2022-10-30T20:45:19.405Z,2.88
2022-10-30T20:47:22.022Z,1.70
2022-10-30T20:49:24.536Z,2.17
2022-10-30T20:51:27.119Z,4.20
2022-10-30T20:53:30.345Z,3.13
2022-10-30T20:55:35.871Z,3.80
2022-10-30T20:57:39.235Z,2.33
2022-10-30T20:59:41.840Z,2.38
2022-10-30T21:01:44.683Z,2.72
2022-10-30T21:04:05.826Z,3.42
2022-10-30T21:06:10.099Z,1.88
2022-10-30T21:08:33.153Z,3.67
2022-10-30T21:10:39.336Z,2.30
2022-10-30T21:12:42.208Z,1.85
2022-10-30T21:15:03.484Z,3.60
2022-10-30T21:17:06.496Z,2.55
2022-10-30T21:19:09.115Z,2.55
2022-10-30T21:21:30.385Z,2.28
2022-10-30T21:23:33.013Z,2.65
2022-10-30T21:26:05.155Z,2.38
2022-10-30T21:28:26.074Z,2.88
2022-10-30T21:31:06.227Z,3.50
2022-10-30T21:33:08.883Z,2.70
2022-10-30T21:35:11.398Z,3.00
2022-10-30T21:37:14.001Z,1.83
2022-10-30T21:39:35.022Z,1.92
2022-10-30T21:42:14.968Z,1.90
2022-10-30T21:44:17.535Z,1.33
2022-10-30T21:46:38.971Z,1.38
2022-10-30T21:49:18.489Z,2.55
2022-10-30T21:51:40.585Z,2.75
2022-10-30T21:53:44.534Z,1.15
2022-10-30T21:55:47.066Z,0.85
2022-10-30T21:57:49.605Z,1.85
2022-10-30T21:59:52.198Z,1.15
2022-10-30T22:01:54.868Z,0.80
2022-10-30T22:04:00.101Z,2.60
2022-10-30T22:06:07.778Z,1.40
2022-10-30T22:08:10.461Z,4.93
2022-10-30T22:10:13.326Z,1.23
2022-10-30T22:12:34.323Z,3.47
2022-10-30T22:14:37.009Z,1.35
2022-10-30T22:16:40.257Z,1.55
2022-10-30T22:18:42.905Z,0.88
2022-10-30T22:21:22.774Z,1.88
2022-10-30T22:24:03.059Z,1.27
2022-10-30T22:26:15.241Z,0.80
2022-10-30T22:28:55.233Z,1.10
2022-10-30T22:31:10.554Z,1.17
2022-10-30T22:33:13.113Z,1.20
2022-10-30T22:35:15.723Z,2.65
2022-10-30T22:37:37.116Z,0.70
2022-10-30T22:40:35.932Z,0.70
2022-10-30T22:43:15.616Z,1.90
2022-10-30T22:45:37.127Z,0.82
2022-10-30T22:47:58.694Z,4.00
2022-10-30T22:50:20.140Z,0.50
2022-10-30T22:52:22.667Z,3.03
2022-10-30T22:55:02.814Z,1.30
2022-10-30T22:57:05.816Z,2.10
2022-10-30T22:59:46.166Z,2.33
2022-10-30T23:02:25.676Z,7.88
2022-10-30T23:05:24.807Z,1.23
2022-10-30T23:08:04.394Z,1.33
2022-10-30T23:10:07.862Z,1.90
2022-10-30T23:12:47.673Z,0.95
2022-10-30T23:15:27.778Z,4.28
2022-10-30T23:18:10.477Z,0.38
2022-10-30T23:20:47.914Z,0.63
2022-10-30T23:23:27.352Z,0.77
2022-10-30T23:25:29.884Z,1.17
2022-10-30T23:27:50.819Z,0.47
2022-10-30T23:30:11.933Z,0.10
2022-10-30T23:32:33.137Z,0.93
2022-10-30T23:34:54.388Z,0.77
2022-10-30T23:37:15.915Z,0.55
2022-10-30T23:39:37.018Z,3.67
2022-10-30T23:41:58.167Z,0.25
2022-10-30T23:44:20.531Z,0.35
2022-10-30T23:47:00.531Z,0.10
2022-10-30T23:49:21.447Z,0.20
2022-10-30T23:51:24.545Z,0.17
2022-10-30T23:53:27.200Z,0.43
2022-10-30T23:55:52.750Z,0.15
2022-10-30T23:58:13.966Z,0.70
